sensor_id;sensor_type;location;lat;lon;timestamp;pressure;altitude;pressure_sealevel;temperature;humidity
11314;BME280;5712;48.858;9.206;2023-05-12T00:02:13;97863.41;;;10.54;100.00
11314;BME280;5712;48.858;9.206;2023-05-12T00:04:41;97859.19;;;10.52;100.00
11314;BME280;5712;48.858;9.206;2023-05-12T00:07:08;97858.56;;;10.48;100.00
11314;BME280;5712;48.858;9.206;2023-05-12T00:09:34;97859.41;;;10.49;100.00
11314;BME280;5712;48.858;9.206;2023-05-12T00:12:01;97847.38;;;10.45;100.00
11314;BME280;5712;48.858;9.206;2023-05-12T00:14:28;97851.41;;;10.38;100.00
11314;BME280;5712;48.858;9.206;2023-05-12T00:16:54;97849.97;;;10.34;100.00
11314;BME280;5712;48.858;9.206;2023-05-12T00:19:21;97846.34;;;10.35;100.00
11314;BME280;5712;48.858;9.206;2023-05-12T00:21:48;97843.81;;;10.33;100.00
11314;BME280;5712;48.858;9.206;2023-05-12T00:24:15;97847.31;;;10.34;100.00
11314;BME280;5712;48.858;9.206;2023-05-12T00:26:41;97850.16;;;10.31;100.00
11314;BME280;5712;48.858;9.206;2023-05-12T00:29:08;97843.88;;;10.21;100.00
11314;BME280;5712;48.858;9.206;2023-05-12T00:31:34;97845.38;;;10.12;100.00
11314;BME280;5712;48.858;9.206;2023-05-12T00:34:01;97842.44;;;10.04;100.00
11314;BME280;5712;48.858;9.206;2023-05-12T00:36:27;97843.69;;;9.99;100.00
11314;BME280;5712;48.858;9.206;2023-05-12T00:38:55;97842.97;;;9.97;100.00
11314;BME280;5712;48.858;9.206;2023-05-12T00:41:22;97843.06;;;9.95;100.00
11314;BME280;5712;48.858;9.206;2023-05-12T00:43:49;97842.22;;;9.95;100.00
11314;BME280;5712;48.858;9.206;2023-05-12T00:46:17;97844.97;;;9.93;100.00
11314;BME280;5712;48.858;9.206;2023-05-12T00:48:44;97838.84;;;9.93;100.00
11314;BME280;5712;48.858;9.206;2023-05-12T00:51:11;97842.44;;;9.92;100.00
11314;BME280;5712;48.858;9.206;2023-05-12T00:53:39;97841.38;;;9.94;100.00
11314;BME280;5712;48.858;9.206;2023-05-12T00:56:07;97842.00;;;9.98;100.00
11314;BME280;5712;48.858;9.206;2023-05-12T00:58:34;97842.00;;;9.98;100.00
11314;BME280;5712;48.858;9.206;2023-05-12T01:01:01;97837.44;;;10.00;100.00
11314;BME280;5712;48.858;9.206;2023-05-12T01:03:27;97843.81;;;10.10;100.00
11314;BME280;5712;48.858;9.206;2023-05-12T01:05:59;97836.41;;;10.15;100.00
11314;BME280;5712;48.858;9.206;2023-05-12T01:08:27;97838.81;;;10.18;100.00
11314;BME280;5712;48.858;9.206;2023-05-12T01:10:54;97833.75;;;10.15;100.00
11314;BME280;5712;48.858;9.206;2023-05-12T01:13:22;97842.50;;;10.15;100.00
11314;BME280;5712;48.858;9.206;2023-05-12T01:15:49;97835.00;;;10.22;100.00
11314;BME280;5712;48.858;9.206;2023-05-12T01:18:18;97835.06;;;10.33;100.00
11314;BME280;5712;48.858;9.206;2023-05-12T01:20:46;97835.78;;;10.35;100.00
11314;BME280;5712;48.858;9.206;2023-05-12T01:23:15;97833.25;;;10.33;100.00
11314;BME280;5712;48.858;9.206;2023-05-12T01:25:45;97833.25;;;10.33;100.00
11314;BME280;5712;48.858;9.206;2023-05-12T01:28:16;97831.56;;;10.32;100.00
11314;BME280;5712;48.858;9.206;2023-05-12T01:30:43;97833.88;;;10.37;100.00
11314;BME280;5712;48.858;9.206;2023-05-12T01:33:10;97828.38;;;10.40;100.00
11314;BME280;5712;48.858;9.206;2023-05-12T01:35:37;97830.88;;;10.41;100.00
11314;BME280;5712;48.858;9.206;2023-05-12T01:38:03;97837.75;;;10.44;100.00
11314;BME280;5712;48.858;9.206;2023-05-12T01:40:30;97831.28;;;10.48;100.00
11314;BME280;5712;48.858;9.206;2023-05-12T01:42:56;97824.84;;;10.52;100.00
11314;BME280;5712;48.858;9.206;2023-05-12T01:45:24;97833.47;;;10.54;100.00
11314;BME280;5712;48.858;9.206;2023-05-12T01:47:51;97828.91;;;10.56;100.00
11314;BME280;5712;48.858;9.206;2023-05-12T01:50:17;97833.75;;;10.62;100.00
11314;BME280;5712;48.858;9.206;2023-05-12T01:52:44;97840.63;;;10.64;100.00
11314;BME280;5712;48.858;9.206;2023-05-12T01:55:10;97839.44;;;10.68;100.00
11314;BME280;5712;48.858;9.206;2023-05-12T01:57:37;97836.56;;;10.71;100.00
11314;BME280;5712;48.858;9.206;2023-05-12T02:00:04;97841.53;;;10.76;100.00
11314;BME280;5712;48.858;9.206;2023-05-12T02:02:32;97831.78;;;10.76;100.00
11314;BME280;5712;48.858;9.206;2023-05-12T02:04:58;97835.78;;;10.82;100.00
11314;BME280;5712;48.858;9.206;2023-05-12T02:07:25;97837.66;;;10.80;100.00
11314;BME280;5712;48.858;9.206;2023-05-12T02:09:51;97832.03;;;10.73;100.00
11314;BME280;5712;48.858;9.206;2023-05-12T02:12:18;97833.91;;;10.71;100.00
11314;BME280;5712;48.858;9.206;2023-05-12T02:14:44;97837.63;;;10.69;100.00
11314;BME280;5712;48.858;9.206;2023-05-12T02:17:11;97836.56;;;10.71;100.00
11314;BME280;5712;48.858;9.206;2023-05-12T02:19:39;97834.72;;;10.61;100.00
11314;BME280;5712;48.858;9.206;2023-05-12T02:22:05;97837.59;;;10.58;100.00
11314;BME280;5712;48.858;9.206;2023-05-12T02:24:32;97832.75;;;10.52;100.00
11314;BME280;5712;48.858;9.206;2023-05-12T02:26:58;97831.09;;;10.51;100.00
11314;BME280;5712;48.858;9.206;2023-05-12T02:29:25;97829.97;;;10.53;100.00
11314;BME280;5712;48.858;9.206;2023-05-12T02:31:51;97829.38;;;10.50;100.00
11314;BME280;5712;48.858;9.206;2023-05-12T02:34:17;97826.00;;;10.48;100.00
11314;BME280;5712;48.858;9.206;2023-05-12T02:36:45;97829.81;;;10.44;100.00
11314;BME280;5712;48.858;9.206;2023-05-12T02:39:12;97833.41;;;10.43;100.00
11314;BME280;5712;48.858;9.206;2023-05-12T02:41:38;97822.13;;;10.41;100.00
11314;BME280;5712;48.858;9.206;2023-05-12T02:44:05;97828.13;;;10.43;100.00
11314;BME280;5712;48.858;9.206;2023-05-12T02:46:31;97829.94;;;10.42;100.00
11314;BME280;5712;48.858;9.206;2023-05-12T02:48:58;97831.75;;;10.42;100.00
11314;BME280;5712;48.858;9.206;2023-05-12T02:51:24;97826.56;;;10.40;100.00
11314;BME280;5712;48.858;9.206;2023-05-12T02:53:52;97824.78;;;10.41;100.00
11314;BME280;5712;48.858;9.206;2023-05-12T02:56:19;97827.94;;;10.46;100.00
11314;BME280;5712;48.858;9.206;2023-05-12T02:58:45;97828.09;;;10.55;100.00
11314;BME280;5712;48.858;9.206;2023-05-12T03:01:12;97826.28;;;10.56;100.00
11314;BME280;5712;48.858;9.206;2023-05-12T03:03:38;97826.06;;;10.59;100.00
11314;BME280;5712;48.858;9.206;2023-05-12T03:06:05;97823.19;;;10.62;100.00
11314;BME280;5712;48.858;9.206;2023-05-12T03:08:32;97832.06;;;10.61;100.00
11314;BME280;5712;48.858;9.206;2023-05-12T03:11:00;97822.13;;;10.64;100.00
11314;BME280;5712;48.858;9.206;2023-05-12T03:13:27;97830.16;;;10.63;100.00
11314;BME280;5712;48.858;9.206;2023-05-12T03:15:53;97837.97;;;10.64;100.00
11314;BME280;5712;48.858;9.206;2023-05-12T03:18:21;97835.22;;;10.66;100.00
11314;BME280;5712;48.858;9.206;2023-05-12T03:20:47;97842.91;;;10.69;100.00
11314;BME280;5712;48.858;9.206;2023-05-12T03:23:14;97832.22;;;10.70;100.00
11314;BME280;5712;48.858;9.206;2023-05-12T03:25:41;97841.72;;;10.73;100.00
11314;BME280;5712;48.858;9.206;2023-05-12T03:28:08;97834.53;;;10.75;100.00
11314;BME280;5712;48.858;9.206;2023-05-12T03:30:35;97837.06;;;10.76;100.00
11314;BME280;5712;48.858;9.206;2023-05-12T03:33:02;97838.63;;;10.79;100.00
11314;BME280;5712;48.858;9.206;2023-05-12T03:35:28;97837.66;;;10.80;100.00
11314;BME280;5712;48.858;9.206;2023-05-12T03:37:55;97835.78;;;10.82;100.00
11314;BME280;5712;48.858;9.206;2023-05-12T03:40:22;97838.53;;;10.80;100.00
11314;BME280;5712;48.858;9.206;2023-05-12T03:42:48;97835.03;;;10.80;100.00
11314;BME280;5712;48.858;9.206;2023-05-12T03:45:16;97836.72;;;10.81;100.00
11314;BME280;5712;48.858;9.206;2023-05-12T03:47:43;97841.16;;;10.80;100.00
11314;BME280;5712;48.858;9.206;2023-05-12T03:50:09;97836.72;;;10.81;100.00
11314;BME280;5712;48.858;9.206;2023-05-12T03:52:36;97834.31;;;10.78;100.00
11314;BME280;5712;48.858;9.206;2023-05-12T03:55:05;97831.56;;;10.79;100.00
11314;BME280;5712;48.858;9.206;2023-05-12T03:57:32;97832.38;;;10.80;100.00
11314;BME280;5712;48.858;9.206;2023-05-12T04:00:00;97829.63;;;10.81;100.00
11314;BME280;5712;48.858;9.206;2023-05-12T04:02:29;97830.25;;;10.85;100.00
11314;BME280;5712;48.858;9.206;2023-05-12T04:04:55;97826.63;;;10.86;100.00
11314;BME280;5712;48.858;9.206;2023-05-12T04:07:22;97826.44;;;10.89;100.00
11314;BME280;5712;48.858;9.206;2023-05-12T04:09:48;97822.81;;;10.90;100.00
11314;BME280;5712;48.858;9.206;2023-05-12T04:12:15;97827.84;;;10.93;100.00
11314;BME280;5712;48.858;9.206;2023-05-12T04:14:41;97825.97;;;10.95;100.00
11314;BME280;5712;48.858;9.206;2023-05-12T04:17:08;97821.66;;;11.05;100.00
11314;BME280;5712;48.858;9.206;2023-05-12T04:19:36;97820.69;;;10.95;100.00
11314;BME280;5712;48.858;9.206;2023-05-12T04:22:03;97818.59;;;10.87;100.00
11314;BME280;5712;48.858;9.206;2023-05-12T04:24:29;97823.28;;;10.84;100.00
11314;BME280;5712;48.858;9.206;2023-05-12T04:26:56;97830.97;;;10.87;100.00
11314;BME280;5712;48.858;9.206;2023-05-12T04:29:22;97842.50;;;10.86;100.00
11314;BME280;5712;48.858;9.206;2023-05-12T04:31:49;97838.91;;;10.87;100.00
11314;BME280;5712;48.858;9.206;2023-05-12T04:34:15;97837.59;;;10.92;100.00
11314;BME280;5712;48.858;9.206;2023-05-12T04:36:43;97839.91;;;10.97;100.00
11314;BME280;5712;48.858;9.206;2023-05-12T04:39:10;97844.59;;;10.93;100.00
11314;BME280;5712;48.858;9.206;2023-05-12T04:41:37;97843.50;;;10.96;100.00
11314;BME280;5712;48.858;9.206;2023-05-12T04:44:04;97849.50;;;10.98;100.00
11314;BME280;5712;48.858;9.206;2023-05-12T04:46:30;97845.78;;;11.00;100.00
11314;BME280;5712;48.858;9.206;2023-05-12T04:48:57;97854.44;;;11.02;100.00
11314;BME280;5712;48.858;9.206;2023-05-12T04:51:23;97852.91;;;11.00;100.00
11314;BME280;5712;48.858;9.206;2023-05-12T04:53:51;97853.38;;;11.05;100.00
11314;BME280;5712;48.858;9.206;2023-05-12T04:56:17;97855.09;;;11.06;100.00
11314;BME280;5712;48.858;9.206;2023-05-12T04:58:44;97859.53;;;11.05;100.00
11314;BME280;5712;48.858;9.206;2023-05-12T05:01:10;97860.03;;;11.10;100.00
11314;BME280;5712;48.858;9.206;2023-05-12T05:03:37;97857.50;;;11.09;100.00
11314;BME280;5712;48.858;9.206;2023-05-12T05:06:04;97862.66;;;11.10;100.00
11314;BME280;5712;48.858;9.206;2023-05-12T05:08:31;97863.88;;;11.17;100.00
11314;BME280;5712;48.858;9.206;2023-05-12T05:10:59;97867.25;;;11.19;100.00
11314;BME280;5712;48.858;9.206;2023-05-12T05:13:25;97859.31;;;11.19;100.00
11314;BME280;5712;48.858;9.206;2023-05-12T05:15:52;97858.13;;;11.23;100.00
11314;BME280;5712;48.858;9.206;2023-05-12T05:18:19;97861.38;;;11.27;100.00
11314;BME280;5712;48.858;9.206;2023-05-12T05:20:46;97864.75;;;11.29;100.00
11314;BME280;5712;48.858;9.206;2023-05-12T05:23:12;97859.13;;;11.33;100.00
11314;BME280;5712;48.858;9.206;2023-05-12T05:25:39;97865.97;;;11.36;100.00
11314;BME280;5712;48.858;9.206;2023-05-12T05:28:07;97866.72;;;11.38;100.00
11314;BME280;5712;48.858;9.206;2023-05-12T05:30:34;97863.47;;;11.45;100.00
11314;BME280;5712;48.858;9.206;2023-05-12T05:33:01;97866.97;;;11.46;100.00
11314;BME280;5712;48.858;9.206;2023-05-12T05:35:29;97873.59;;;11.51;100.00
11314;BME280;5712;48.858;9.206;2023-05-12T05:37:56;97874.31;;;11.53;100.00
11314;BME280;5712;48.858;9.206;2023-05-12T05:40:22;97873.09;;;11.57;100.00
11314;BME280;5712;48.858;9.206;2023-05-12T05:42:49;97879.06;;;11.61;100.00
11314;BME280;5712;48.858;9.206;2023-05-12T05:45:17;97877.34;;;11.60;100.00
11314;BME280;5712;48.858;9.206;2023-05-12T05:47:43;97877.34;;;11.60;100.00
11314;BME280;5712;48.858;9.206;2023-05-12T05:50:10;97883.38;;;11.62;100.00
11314;BME280;5712;48.858;9.206;2023-05-12T05:52:37;97881.56;;;11.62;100.00
11314;BME280;5712;48.858;9.206;2023-05-12T05:55:04;97874.22;;;11.66;100.00
11314;BME280;5712;48.858;9.206;2023-05-12T05:57:32;97882.91;;;11.68;100.00
11314;BME280;5712;48.858;9.206;2023-05-12T05:59:58;97884.59;;;11.69;100.00
11314;BME280;5712;48.858;9.206;2023-05-12T06:02:26;97883.25;;;11.74;100.00
11314;BME280;5712;48.858;9.206;2023-05-12T06:04:52;97883.03;;;11.66;100.00
11314;BME280;5712;48.858;9.206;2023-05-12T06:07:19;97876.03;;;11.65;100.00
11314;BME280;5712;48.858;9.206;2023-05-12T06:09:45;97876.88;;;11.66;100.00
11314;BME280;5712;48.858;9.206;2023-05-12T06:12:12;97886.75;;;11.75;100.00
11314;BME280;5712;48.858;9.206;2023-05-12T06:14:39;97886.66;;;11.76;100.00
11314;BME280;5712;48.858;9.206;2023-05-12T06:17:05;97896.28;;;11.77;100.00
11314;BME280;5712;48.858;9.206;2023-05-12T06:19:33;97894.34;;;11.79;100.00
11314;BME280;5712;48.858;9.206;2023-05-12T06:22:00;97896.16;;;11.79;100.00
11314;BME280;5712;48.858;9.206;2023-05-12T06:24:27;97900.94;;;11.85;100.00
11314;BME280;5712;48.858;9.206;2023-05-12T06:26:53;97899.06;;;11.87;100.00
11314;BME280;5712;48.858;9.206;2023-05-12T06:29:20;97904.34;;;11.98;100.00
11314;BME280;5712;48.858;9.206;2023-05-12T06:31:47;97903.88;;;12.04;100.00
11314;BME280;5712;48.858;9.206;2023-05-12T06:34:13;97903.63;;;12.07;100.00
11314;BME280;5712;48.858;9.206;2023-05-12T06:36:41;97900.25;;;12.16;100.00
11314;BME280;5712;48.858;9.206;2023-05-12T06:39:13;97909.03;;;12.16;100.00
11314;BME280;5712;48.858;9.206;2023-05-12T06:41:40;97910.81;;;12.27;100.00
11314;BME280;5712;48.858;9.206;2023-05-12T06:44:06;97905.91;;;12.33;100.00
11314;BME280;5712;48.858;9.206;2023-05-12T06:46:36;97906.25;;;12.40;100.00
11314;BME280;5712;48.858;9.206;2023-05-12T06:49:03;97908.16;;;12.38;100.00
11314;BME280;5712;48.858;9.206;2023-05-12T06:51:29;97901.19;;;12.37;100.00
11314;BME280;5712;48.858;9.206;2023-05-12T06:53:57;97902.06;;;12.37;100.00
11314;BME280;5712;48.858;9.206;2023-05-12T06:56:24;97909.50;;;12.32;100.00
11314;BME280;5712;48.858;9.206;2023-05-12T06:58:50;97904.34;;;12.31;100.00
11314;BME280;5712;48.858;9.206;2023-05-12T07:01:18;97905.53;;;12.27;100.00
11314;BME280;5712;48.858;9.206;2023-05-12T07:03:45;97906.28;;;12.29;100.00
11314;BME280;5712;48.858;9.206;2023-05-12T07:06:11;97915.91;;;12.41;100.00
11314;BME280;5712;48.858;9.206;2023-05-12T07:08:38;97912.16;;;12.43;100.00
11314;BME280;5712;48.858;9.206;2023-05-12T07:11:06;97912.25;;;12.53;100.00
11314;BME280;5712;48.858;9.206;2023-05-12T07:13:32;97909.06;;;12.70;100.00
11314;BME280;5712;48.858;9.206;2023-05-12T07:15:59;97908.81;;;12.84;100.00
11314;BME280;5712;48.858;9.206;2023-05-12T07:18:25;97906.88;;;12.97;100.00
11314;BME280;5712;48.858;9.206;2023-05-12T07:20:52;97910.88;;;13.12;100.00
11314;BME280;5712;48.858;9.206;2023-05-12T07:23:18;97901.44;;;13.19;100.00
11314;BME280;5712;48.858;9.206;2023-05-12T07:25:45;97906.25;;;13.25;100.00
11314;BME280;5712;48.858;9.206;2023-05-12T07:28:13;97906.72;;;13.30;100.00
11314;BME280;5712;48.858;9.206;2023-05-12T07:30:40;97894.88;;;13.34;100.00
11314;BME280;5712;48.858;9.206;2023-05-12T07:33:06;97891.19;;;13.25;100.00
11314;BME280;5712;48.858;9.206;2023-05-12T07:35:33;97898.94;;;13.17;100.00
11314;BME280;5712;48.858;9.206;2023-05-12T07:37:59;97894.81;;;13.24;100.00
11314;BME280;5712;48.858;9.206;2023-05-12T07:40:27;97899.25;;;13.24;100.00
11314;BME280;5712;48.858;9.206;2023-05-12T07:42:54;97893.78;;;13.36;100.00
11314;BME280;5712;48.858;9.206;2023-05-12T07:45:22;97893.06;;;13.55;100.00
11314;BME280;5712;48.858;9.206;2023-05-12T07:47:49;97894.81;;;13.65;100.00
11314;BME280;5712;48.858;9.206;2023-05-12T07:50:16;97893.91;;;13.76;100.00
11314;BME280;5712;48.858;9.206;2023-05-12T07:52:47;97886.72;;;13.97;100.00
11314;BME280;5712;48.858;9.206;2023-05-12T07:55:14;97889.41;;;14.06;100.00
11314;BME280;5712;48.858;9.206;2023-05-12T07:57:41;97884.44;;;14.13;100.00
11314;BME280;5712;48.858;9.206;2023-05-12T08:00:09;97892.06;;;14.27;100.00
11314;BME280;5712;48.858;9.206;2023-05-12T08:02:38;97883.44;;;14.44;100.00
11314;BME280;5712;48.858;9.206;2023-05-12T08:05:05;97882.34;;;14.46;100.00
11314;BME280;5712;48.858;9.206;2023-05-12T08:07:33;97881.53;;;14.65;100.00
11314;BME280;5712;48.858;9.206;2023-05-12T08:09:59;97875.84;;;14.79;99.10
11314;BME280;5712;48.858;9.206;2023-05-12T08:12:26;97882.16;;;14.97;97.92
11314;BME280;5712;48.858;9.206;2023-05-12T08:14:52;97886.06;;;15.12;98.00
11314;BME280;5712;48.858;9.206;2023-05-12T08:17:19;97888.50;;;15.34;97.01
11314;BME280;5712;48.858;9.206;2023-05-12T08:19:47;97883.56;;;15.58;96.98
11314;BME280;5712;48.858;9.206;2023-05-12T08:22:13;97883.22;;;15.80;95.71
11314;BME280;5712;48.858;9.206;2023-05-12T08:24:40;97875.59;;;15.94;92.64
11314;BME280;5712;48.858;9.206;2023-05-12T08:27:06;97864.81;;;15.96;91.41
11314;BME280;5712;48.858;9.206;2023-05-12T08:29:33;97871.53;;;16.00;91.09
11314;BME280;5712;48.858;9.206;2023-05-12T08:32:01;97883.72;;;15.93;94.15
11314;BME280;5712;48.858;9.206;2023-05-12T08:34:27;97887.97;;;15.86;94.49
11314;BME280;5712;48.858;9.206;2023-05-12T08:36:56;97884.88;;;15.81;94.93
11314;BME280;5712;48.858;9.206;2023-05-12T08:39:22;97880.28;;;15.83;94.32
11314;BME280;5712;48.858;9.206;2023-05-12T08:41:52;97888.47;;;15.98;95.42
11314;BME280;5712;48.858;9.206;2023-05-12T08:44:20;97892.06;;;16.16;95.80
11314;BME280;5712;48.858;9.206;2023-05-12T08:46:48;97881.47;;;16.43;94.42
11314;BME280;5712;48.858;9.206;2023-05-12T08:49:16;97876.75;;;16.55;92.52
11314;BME280;5712;48.858;9.206;2023-05-12T08:51:46;97875.56;;;16.67;92.00
11314;BME280;5712;48.858;9.206;2023-05-12T08:54:16;97881.06;;;16.65;90.45
11314;BME280;5712;48.858;9.206;2023-05-12T08:56:44;97874.63;;;16.58;89.38
11314;BME280;5712;48.858;9.206;2023-05-12T08:59:11;97884.38;;;16.50;89.88
11314;BME280;5712;48.858;9.206;2023-05-12T09:01:39;97888.09;;;16.39;89.66
11314;BME280;5712;48.858;9.206;2023-05-12T09:04:07;97885.97;;;16.43;89.50
11314;BME280;5712;48.858;9.206;2023-05-12T09:06:34;97898.75;;;16.39;89.67
11314;BME280;5712;48.858;9.206;2023-05-12T09:09:01;97877.97;;;16.33;86.03
11314;BME280;5712;48.858;9.206;2023-05-12T09:11:29;97874.06;;;16.28;85.59
11314;BME280;5712;48.858;9.206;2023-05-12T09:13:59;97885.91;;;16.16;89.60
11314;BME280;5712;48.858;9.206;2023-05-12T09:16:30;97897.41;;;16.16;90.61
11314;BME280;5712;48.858;9.206;2023-05-12T09:18:59;97894.38;;;16.12;90.84
11314;BME280;5712;48.858;9.206;2023-05-12T09:21:26;97894.94;;;16.06;90.01
11314;BME280;5712;48.858;9.206;2023-05-12T09:23:55;97885.97;;;16.07;90.87
11314;BME280;5712;48.858;9.206;2023-05-12T09:26:22;97893.25;;;16.04;89.60
11314;BME280;5712;48.858;9.206;2023-05-12T09:28:51;97903.34;;;16.01;92.01
11314;BME280;5712;48.858;9.206;2023-05-12T09:31:19;97903.09;;;15.95;92.81
11314;BME280;5712;48.858;9.206;2023-05-12T09:33:46;97898.63;;;15.86;90.77
11314;BME280;5712;48.858;9.206;2023-05-12T09:36:16;97886.88;;;15.79;88.98
11314;BME280;5712;48.858;9.206;2023-05-12T09:38:43;97865.44;;;15.71;85.54
11314;BME280;5712;48.858;9.206;2023-05-12T09:41:10;97862.06;;;15.78;84.22
11314;BME280;5712;48.858;9.206;2023-05-12T09:43:36;97857.03;;;16.02;82.38
11314;BME280;5712;48.858;9.206;2023-05-12T09:46:11;97854.41;;;16.29;81.90
11314;BME280;5712;48.858;9.206;2023-05-12T09:48:38;97865.88;;;16.48;82.65
11314;BME280;5712;48.858;9.206;2023-05-12T09:51:08;97861.28;;;16.58;82.35
11314;BME280;5712;48.858;9.206;2023-05-12T09:53:40;97866.03;;;16.64;81.40
11314;BME280;5712;48.858;9.206;2023-05-12T09:56:09;97851.81;;;16.73;77.99
11314;BME280;5712;48.858;9.206;2023-05-12T09:58:39;97846.34;;;16.65;76.43
11314;BME280;5712;48.858;9.206;2023-05-12T10:01:07;97866.34;;;16.61;80.64
11314;BME280;5712;48.858;9.206;2023-05-12T10:03:36;97862.97;;;16.59;82.37
11314;BME280;5712;48.858;9.206;2023-05-12T10:06:05;97871.38;;;16.64;83.55
11314;BME280;5712;48.858;9.206;2023-05-12T10:08:35;97876.47;;;16.58;84.77
11314;BME280;5712;48.858;9.206;2023-05-12T10:11:04;97884.81;;;16.45;85.75
11314;BME280;5712;48.858;9.206;2023-05-12T10:13:31;97891.03;;;16.36;86.97
11314;BME280;5712;48.858;9.206;2023-05-12T10:15:58;97891.75;;;16.29;88.60
11314;BME280;5712;48.858;9.206;2023-05-12T10:18:26;97899.38;;;16.14;89.89
11314;BME280;5712;48.858;9.206;2023-05-12T10:20:55;97898.56;;;16.04;91.41
11314;BME280;5712;48.858;9.206;2023-05-12T10:23:22;97907.47;;;15.86;92.86
11314;BME280;5712;48.858;9.206;2023-05-12T10:25:51;97917.91;;;15.51;96.56
11314;BME280;5712;48.858;9.206;2023-05-12T10:28:22;97917.31;;;15.29;100.00
11314;BME280;5712;48.858;9.206;2023-05-12T10:30:49;97923.88;;;15.06;100.00
11314;BME280;5712;48.858;9.206;2023-05-12T10:33:17;97912.97;;;14.90;100.00
11314;BME280;5712;48.858;9.206;2023-05-12T10:35:44;97923.44;;;14.82;100.00
11314;BME280;5712;48.858;9.206;2023-05-12T10:38:14;97923.44;;;14.82;100.00
11314;BME280;5712;48.858;9.206;2023-05-12T10:40:51;97908.84;;;14.67;100.00
11314;BME280;5712;48.858;9.206;2023-05-12T10:43:21;97915.28;;;14.64;100.00
11314;BME280;5712;48.858;9.206;2023-05-12T10:46:07;97919.63;;;14.75;100.00
11314;BME280;5712;48.858;9.206;2023-05-12T10:48:34;97915.75;;;14.88;100.00
11314;BME280;5712;48.858;9.206;2023-05-12T10:51:08;97916.34;;;15.11;100.00
11314;BME280;5712;48.858;9.206;2023-05-12T10:53:37;97905.97;;;15.17;100.00
11314;BME280;5712;48.858;9.206;2023-05-12T10:56:04;97912.88;;;15.39;100.00
11314;BME280;5712;48.858;9.206;2023-05-12T10:58:31;97902.91;;;15.50;99.08
11314;BME280;5712;48.858;9.206;2023-05-12T11:01:04;97901.78;;;15.62;98.51
11314;BME280;5712;48.858;9.206;2023-05-12T11:03:31;97905.09;;;15.74;98.91
11314;BME280;5712;48.858;9.206;2023-05-12T11:05:59;97905.63;;;15.87;95.99
11314;BME280;5712;48.858;9.206;2023-05-12T11:08:26;97895.28;;;15.84;94.03
11314;BME280;5712;48.858;9.206;2023-05-12T11:10:54;97905.09;;;15.83;96.27
11314;BME280;5712;48.858;9.206;2023-05-12T11:13:21;97907.59;;;15.94;95.23
11314;BME280;5712;48.858;9.206;2023-05-12T11:15:49;97905.06;;;15.93;95.71
11314;BME280;5712;48.858;9.206;2023-05-12T11:18:19;97916.94;;;16.08;96.54
11314;BME280;5712;48.858;9.206;2023-05-12T11:20:46;97917.38;;;16.13;97.07
11314;BME280;5712;48.858;9.206;2023-05-12T11:23:22;97913.47;;;15.98;95.66
11314;BME280;5712;48.858;9.206;2023-05-12T11:25:49;97908.13;;;15.98;94.71
11314;BME280;5712;48.858;9.206;2023-05-12T11:28:17;97924.03;;;15.90;96.91
11314;BME280;5712;48.858;9.206;2023-05-12T11:30:48;97929.22;;;15.91;100.00
11314;BME280;5712;48.858;9.206;2023-05-12T11:33:18;97920.09;;;15.94;99.00
11314;BME280;5712;48.858;9.206;2023-05-12T11:35:45;97917.69;;;15.91;94.89
11314;BME280;5712;48.858;9.206;2023-05-12T11:38:15;97927.53;;;15.81;95.95
11314;BME280;5712;48.858;9.206;2023-05-12T11:40:42;97918.00;;;15.88;95.19
11314;BME280;5712;48.858;9.206;2023-05-12T11:43:09;97913.78;;;15.95;93.84
11314;BME280;5712;48.858;9.206;2023-05-12T11:45:40;97913.25;;;15.82;92.19
11314;BME280;5712;48.858;9.206;2023-05-12T11:48:08;97922.03;;;15.92;93.07
11314;BME280;5712;48.858;9.206;2023-05-12T11:50:36;97918.63;;;16.08;91.22
11314;BME280;5712;48.858;9.206;2023-05-12T11:53:03;97897.03;;;16.12;88.23
11314;BME280;5712;48.858;9.206;2023-05-12T11:55:30;97890.72;;;16.13;84.37
11314;BME280;5712;48.858;9.206;2023-05-12T11:58:00;97884.25;;;16.15;83.55
11314;BME280;5712;48.858;9.206;2023-05-12T12:00:29;97894.56;;;16.27;84.71
11314;BME280;5712;48.858;9.206;2023-05-12T12:03:11;97897.63;;;16.42;82.12
11314;BME280;5712;48.858;9.206;2023-05-12T12:05:39;97891.34;;;16.60;82.12
11314;BME280;5712;48.858;9.206;2023-05-12T12:08:07;97878.78;;;16.70;80.02
11314;BME280;5712;48.858;9.206;2023-05-12T12:10:34;97892.31;;;16.86;80.61
11314;BME280;5712;48.858;9.206;2023-05-12T12:13:02;97905.44;;;16.97;83.36
11314;BME280;5712;48.858;9.206;2023-05-12T12:15:28;97908.44;;;17.12;82.66
11314;BME280;5712;48.858;9.206;2023-05-12T12:17:55;97899.25;;;17.14;80.24
11314;BME280;5712;48.858;9.206;2023-05-12T12:20:23;97902.00;;;17.05;81.18
11314;BME280;5712;48.858;9.206;2023-05-12T12:22:51;97908.78;;;16.99;83.10
11314;BME280;5712;48.858;9.206;2023-05-12T12:25:17;97918.63;;;16.99;84.99
11314;BME280;5712;48.858;9.206;2023-05-12T12:27:44;97925.88;;;17.06;86.27
11314;BME280;5712;48.858;9.206;2023-05-12T12:30:12;97925.69;;;17.17;86.40
11314;BME280;5712;48.858;9.206;2023-05-12T12:32:39;97913.38;;;17.24;82.51
11314;BME280;5712;48.858;9.206;2023-05-12T12:35:06;97902.84;;;17.05;80.10
11314;BME280;5712;48.858;9.206;2023-05-12T12:37:34;97895.13;;;16.85;79.27
11314;BME280;5712;48.858;9.206;2023-05-12T12:40:02;97903.00;;;16.86;81.69
11314;BME280;5712;48.858;9.206;2023-05-12T12:42:32;97912.00;;;16.85;81.77
11314;BME280;5712;48.858;9.206;2023-05-12T12:45:00;97907.72;;;16.92;82.40
11314;BME280;5712;48.858;9.206;2023-05-12T12:47:26;97901.59;;;16.82;82.12
11314;BME280;5712;48.858;9.206;2023-05-12T12:49:53;97910.34;;;16.75;83.07
11314;BME280;5712;48.858;9.206;2023-05-12T12:52:19;97909.31;;;16.58;81.39
11314;BME280;5712;48.858;9.206;2023-05-12T12:54:50;97915.97;;;16.54;83.52
11314;BME280;5712;48.858;9.206;2023-05-12T12:57:17;97917.41;;;16.39;82.80
11314;BME280;5712;48.858;9.206;2023-05-12T12:59:45;97922.91;;;16.28;85.77
11314;BME280;5712;48.858;9.206;2023-05-12T13:02:11;97930.25;;;16.17;86.67
11314;BME280;5712;48.858;9.206;2023-05-12T13:04:38;97943.56;;;16.26;90.06
11314;BME280;5712;48.858;9.206;2023-05-12T13:07:06;97946.19;;;16.36;91.49